This is the latest recevied weather packets stored in our database for station/object W1LBM. If no packets are shown the sender has not sent any weather packets the latest 1 day(s).
| Time | Temp. | Humidity | Pressure | Rain* | Wind** | Luminosity | Snow |
|---|---|---|---|---|---|---|---|
| 1778111631 | 13.89° C | 99% | 1010.4 hPa | 0 mm | - | 0 W/m² | - |
| 1778110115 | 13.89° C | 99% | 1010.2 hPa | 1.27 mm | - | 2 W/m² | - |
| 1778109507 | 13.89° C | 99% | 1010.1 hPa | 0 mm | - | 2 W/m² | - |
| 1778108902 | 13.89° C | 99% | 1010.1 hPa | 0 mm | - | 3 W/m² | - |
| 1778105566 | 14.44° C | 98% | 1010.2 hPa | 0 mm | - | 34 W/m² | - |
| 1778104958 | 14.44° C | 98% | 1010.5 hPa | 1.27 mm | - | 26 W/m² | - |
| 1778103140 | 15° C | 94% | 1010.6 hPa | 1.78 mm | - | 28 W/m² | - |
| 1778102837 | 15.56° C | 93% | 1010.7 hPa | 1.78 mm | - | 33 W/m² | - |
| 1778102228 | 15.56° C | 91% | 1010.8 hPa | 0 mm | - | 22 W/m² | - |
| 1778101319 | 15.56° C | 92% | 1010.9 hPa | 0 mm | - | 24 W/m² | - |
| 1778101016 | 15.56° C | 92% | 1010.8 hPa | 0 mm | - | 23 W/m² | - |
| 1778100716 | 15.56° C | 92% | 1011 hPa | 0 mm | - | 30 W/m² | - |
| 1778099809 | 15.56° C | 92% | 1011 hPa | 0 mm | - | 34 W/m² | - |
| 1778099204 | 15° C | 92% | 1011.1 hPa | 0 mm | - | 29 W/m² | - |
| 1778098293 | 15° C | 93% | 1011.2 hPa | 0 mm | - | 42 W/m² | - |
| 1778097383 | 15.56° C | 93% | 1011.5 hPa | 0 mm | - | 34 W/m² | - |
| 1778095565 | 16.67° C | 86% | 1011.4 hPa | 0 mm | - | 78 W/m² | - |
| 1778094957 | 16.67° C | 83% | 1011.4 hPa | 0 mm | - | 59 W/m² | - |
| 1778093745 | 17.78° C | 77% | 1011.5 hPa | 0 mm | - | 82 W/m² | - |
| 1778093139 | 17.78° C | 75% | 1011.8 hPa | 0 mm | - | 90 W/m² | - |
| 1778092836 | 17.78° C | 74% | 1011.7 hPa | 0 mm | - | 99 W/m² | - |
| 1778092229 | 18.33° C | 74% | 1011.6 hPa | 0 mm | - | 91 W/m² | - |
| 1778090714 | 18.89° C | 70% | 1012.1 hPa | 0 mm | - | 99 W/m² | - |
| 1778089198 | 20° C | 67% | 1012.1 hPa | 0 mm | - | 126 W/m² | - |
| 1778088896 | 20° C | 67% | 1012.2 hPa | 0 mm | - | 153 W/m² | - |
* Rain latest hour (hover to see other rain measurements)
** Current wind speed in m/s (hover to see current wind gust speed)